Time;durP1;ratioP1;P1;durP2;ratioP2;P2;SDS_P1;SDS_P2;PMS_P1;PMS_P2;Temp;Humidity;BMP_temperature;BMP_pressure;BME280_temperature;BME280_humidity;BME280_pressure;Samples;Min_cycle;Max_cycle;Signal;HPM_P1;HPM_P2
2024/01/24 00:01:26;;;;;;;12.80;5.00;;;;;;;1.32;82.39;101061.20;213615;1268;71460;-72
2024/01/24 00:06:20;;;;;;;19.50;6.00;;;;;;;1.21;82.82;101074.55;213730;1268;61321;-71
2024/01/24 00:11:16;;;;;;;13.50;6.10;;;;;;;1.08;82.59;101071.23;213880;1268;65521;-72
2024/01/24 00:16:08;;;;;;;11.40;4.10;;;;;;;0.96;82.85;101071.67;213388;1268;61717;-72
2024/01/24 00:21:19;;;;;;;12.70;4.50;;;;;;;0.86;82.80;101067.16;213640;1268;74062;-71
2024/01/24 00:26:11;;;;;;;7.90;4.60;;;;;;;0.80;83.01;101073.95;213826;1269;61303;-71
2024/01/24 00:31:05;;;;;;;13.70;5.70;;;;;;;0.74;83.41;101070.20;213775;1268;61174;-72
2024/01/24 00:36:01;;;;;;;16.40;6.90;;;;;;;0.69;83.33;101062.66;213680;1268;61279;-72
2024/01/24 00:40:54;;;;;;;20.50;7.00;;;;;;;0.63;83.48;101065.05;213956;1268;61233;-72
2024/01/24 00:45:47;;;;;;;14.40;6.70;;;;;;;0.54;83.24;101060.53;214119;1272;61362;-71
2024/01/24 00:50:40;;;;;;;18.40;6.40;;;;;;;0.44;83.00;101053.44;214147;1268;61368;-72
2024/01/24 00:55:32;;;;;;;15.50;6.40;;;;;;;0.37;83.45;101049.26;213843;1268;61462;-72
2024/01/24 01:00:26;;;;;;;17.90;6.80;;;;;;;0.32;83.66;101055.48;214105;1271;61260;-72
2024/01/24 01:05:19;;;;;;;13.60;6.50;;;;;;;0.29;83.91;101059.64;214197;1268;61380;-72
2024/01/24 01:10:12;;;;;;;17.60;7.20;;;;;;;0.28;84.02;101047.64;214114;1268;73219;-72
2024/01/24 01:15:05;;;;;;;17.60;7.60;;;;;;;0.25;83.83;101025.52;214083;1267;61405;-72
2024/01/24 01:19:58;;;;;;;12.10;6.60;;;;;;;0.27;84.05;101022.56;214062;1268;61387;-72
2024/01/24 01:24:51;;;;;;;10.40;7.40;;;;;;;0.30;84.28;101010.44;214021;1267;61288;-71
2024/01/24 01:29:44;;;;;;;14.70;6.80;;;;;;;0.30;84.15;100987.09;214034;1268;61370;-72
2024/01/24 01:34:37;;;;;;;18.80;7.90;;;;;;;0.28;84.29;100967.20;213828;1268;191628;-71
2024/01/24 01:39:30;;;;;;;14.80;7.10;;;;;;;0.23;84.37;100950.33;214034;1268;61332;-72
2024/01/24 01:44:23;;;;;;;12.10;6.40;;;;;;;0.18;84.47;100929.90;214011;1268;61317;-72
2024/01/24 01:49:15;;;;;;;15.20;6.80;;;;;;;0.14;84.59;100913.65;214039;1268;61345;-72
2024/01/24 01:54:09;;;;;;;13.60;6.90;;;;;;;0.11;84.66;100910.20;213907;1268;61481;-72
2024/01/24 01:59:02;;;;;;;11.50;6.10;;;;;;;0.06;84.57;100891.84;213983;1268;73419;-72
2024/01/24 02:03:55;;;;;;;16.50;7.50;;;;;;;0.02;84.72;100889.52;214008;1268;61705;-72
2024/01/24 02:08:48;;;;;;;11.70;7.80;;;;;;;0.02;84.95;100884.89;214073;1268;61196;-72
2024/01/24 02:13:41;;;;;;;17.10;6.60;;;;;;;0.01;85.14;100871.77;214037;1268;66367;-72
2024/01/24 02:18:34;;;;;;;15.80;6.40;;;;;;;0.02;85.01;100864.27;214068;1268;61279;-71
2024/01/24 02:23:27;;;;;;;12.80;6.60;;;;;;;0.01;85.11;100867.51;214055;1268;61452;-71
2024/01/24 02:28:20;;;;;;;11.70;6.70;;;;;;;0.04;85.25;100870.05;214080;1268;61261;-72
2024/01/24 02:33:14;;;;;;;14.00;6.90;;;;;;;0.07;85.58;100855.23;214203;1268;61374;-72
2024/01/24 02:38:07;;;;;;;15.90;7.20;;;;;;;0.13;85.71;100841.30;214188;1268;66189;-71
2024/01/24 02:43:00;;;;;;;12.30;7.30;;;;;;;0.20;85.80;100814.83;214196;1270;61259;-72
2024/01/24 02:47:52;;;;;;;20.00;7.70;;;;;;;0.23;85.76;100787.71;214102;1271;61427;-72
2024/01/24 02:52:45;;;;;;;18.70;6.60;;;;;;;0.20;85.83;100789.91;214029;1268;61268;-72
2024/01/24 02:57:38;;;;;;;10.90;6.20;;;;;;;0.19;85.98;100782.84;214083;1268;62961;-72
2024/01/24 03:02:31;;;;;;;15.20;6.70;;;;;;;0.17;86.03;100781.52;214063;1268;61277;-72
2024/01/24 03:07:24;;;;;;;18.30;7.10;;;;;;;0.16;86.42;100768.16;214161;1268;61418;-72
2024/01/24 03:12:16;;;;;;;14.40;7.10;;;;;;;0.15;86.25;100770.52;214038;1268;61374;-72
2024/01/24 03:17:09;;;;;;;16.90;6.10;;;;;;;0.12;86.13;100751.92;213954;1270;61289;-72
2024/01/24 03:22:02;;;;;;;29.30;7.60;;;;;;;0.10;86.20;100734.09;214066;1268;61966;-71
2024/01/24 03:26:55;;;;;;;16.50;6.50;;;;;;;0.07;86.58;100700.30;214000;1268;61365;-72
2024/01/24 03:31:48;;;;;;;14.50;7.00;;;;;;;0.03;86.73;100687.13;214106;1268;61374;-72
2024/01/24 03:36:41;;;;;;;14.50;7.40;;;;;;;0.02;86.84;100680.77;214069;1268;61312;-72
2024/01/24 03:41:34;;;;;;;19.70;7.90;;;;;;;0.03;86.78;100672.48;214039;1268;61364;-72
2024/01/24 03:46:26;;;;;;;17.10;7.80;;;;;;;0.05;87.23;100680.59;214055;1268;61270;-72
2024/01/24 03:51:19;;;;;;;20.70;8.40;;;;;;;0.05;87.04;100674.47;214059;1271;61265;-72
2024/01/24 03:56:12;;;;;;;16.10;7.30;;;;;;;0.09;87.07;100670.14;214052;1270;61268;-72
2024/01/24 04:01:06;;;;;;;22.30;8.70;;;;;;;0.14;87.21;100660.17;214042;1268;61779;-71
2024/01/24 04:05:59;;;;;;;19.50;8.60;;;;;;;0.17;87.12;100651.33;214176;1268;61282;-72
2024/01/24 04:10:52;;;;;;;14.40;6.50;;;;;;;0.29;87.93;100626.75;214095;1268;61270;-71
2024/01/24 04:15:45;;;;;;;13.90;6.90;;;;;;;0.37;87.17;100612.36;214078;1272;61332;-72
2024/01/24 04:20:38;;;;;;;18.20;7.00;;;;;;;0.45;87.33;100595.24;214026;1268;61296;-72
2024/01/24 04:25:31;;;;;;;12.40;7.90;;;;;;;0.49;86.81;100573.31;214091;1268;61280;-72
2024/01/24 04:30:23;;;;;;;13.70;7.20;;;;;;;0.54;87.10;100558.59;214102;1268;61409;-72
2024/01/24 04:35:16;;;;;;;16.00;7.70;;;;;;;0.58;86.87;100548.87;214052;1268;61291;-72
2024/01/24 04:40:10;;;;;;;11.60;7.70;;;;;;;0.59;86.95;100532.20;214103;1268;61312;-72
2024/01/24 04:45:03;;;;;;;15.50;8.00;;;;;;;0.60;86.54;100516.92;214093;1268;61326;-71
2024/01/24 04:49:56;;;;;;;17.30;7.60;;;;;;;0.61;86.62;100508.11;214069;1268;61250;-71
2024/01/24 04:54:48;;;;;;;16.10;7.70;;;;;;;0.64;86.67;100493.77;214100;1268;61270;-71
2024/01/24 04:59:41;;;;;;;14.30;6.40;;;;;;;0.66;86.40;100486.41;214102;1272;61387;-71
2024/01/24 05:04:47;;;;;;;15.50;7.10;;;;;;;0.72;86.52;100460.59;214060;1268;70336;-71
2024/01/24 05:09:40;;;;;;;11.00;6.00;;;;;;;0.76;86.19;100448.70;214153;1268;61282;-71
2024/01/24 05:14:34;;;;;;;15.90;7.00;;;;;;;0.82;86.29;100432.08;214017;1268;61256;-70
2024/01/24 05:19:27;;;;;;;13.70;6.90;;;;;;;0.87;85.81;100416.81;214083;1271;61304;-71
2024/01/24 05:24:20;;;;;;;16.40;7.20;;;;;;;0.90;85.88;100408.44;214062;1272;61277;-71
2024/01/24 05:29:13;;;;;;;10.40;6.50;;;;;;;0.93;85.80;100405.34;214049;1268;71384;-72
2024/01/24 05:34:05;;;;;;;12.90;6.20;;;;;;;0.98;85.39;100395.00;214089;1268;63208;-71
2024/01/24 05:38:58;;;;;;;23.50;7.30;;;;;;;1.03;85.66;100380.05;214085;1268;61317;-71
2024/01/24 05:43:51;;;;;;;11.60;6.20;;;;;;;1.07;85.29;100369.91;213949;1268;61397;-70
2024/01/24 05:48:44;;;;;;;11.90;7.70;;;;;;;1.12;85.32;100354.42;214098;1272;61268;-70
2024/01/24 05:53:37;;;;;;;13.30;6.60;;;;;;;1.19;84.85;100336.29;214222;1268;61285;-71
2024/01/24 05:58:30;;;;;;;16.70;8.30;;;;;;;1.24;84.69;100309.71;214109;1268;61314;-71
2024/01/24 06:03:22;;;;;;;16.30;7.00;;;;;;;1.28;84.99;100289.64;214042;1268;61274;-71
2024/01/24 06:08:15;;;;;;;15.00;6.30;;;;;;;1.34;84.48;100268.02;214133;1272;61268;-71
2024/01/24 06:13:08;;;;;;;14.50;6.90;;;;;;;1.37;84.38;100259.64;214097;1270;61290;-72
2024/01/24 06:18:00;;;;;;;15.70;7.30;;;;;;;1.43;84.42;100253.77;214016;1272;61300;-71
2024/01/24 06:22:53;;;;;;;16.30;7.90;;;;;;;1.50;84.06;100250.83;214190;1268;61401;-71
2024/01/24 06:27:47;;;;;;;18.40;6.80;;;;;;;1.58;83.95;100240.60;214096;1268;61274;-71
2024/01/24 06:32:40;;;;;;;13.80;5.80;;;;;;;1.64;83.77;100230.96;214018;1268;61304;-71
2024/01/24 06:37:33;;;;;;;22.00;6.90;;;;;;;1.70;83.70;100224.39;214114;1268;61295;-71
2024/01/24 06:42:26;;;;;;;13.20;7.40;;;;;;;1.78;83.83;100211.59;214096;1268;61271;-70
2024/01/24 06:47:18;;;;;;;17.00;7.60;;;;;;;1.82;83.71;100205.11;214001;1268;62815;-70
2024/01/24 06:52:11;;;;;;;16.70;7.60;;;;;;;1.83;84.16;100189.95;214033;1268;61271;-70
2024/01/24 06:57:04;;;;;;;14.40;7.30;;;;;;;1.80;84.52;100188.29;213913;1268;61400;-68
2024/01/24 07:01:57;;;;;;;13.20;7.00;;;;;;;1.72;84.98;100173.94;213971;1268;61323;-69
2024/01/24 07:06:51;;;;;;;13.20;6.40;;;;;;;1.62;85.13;100158.27;213991;1268;61444;-70
2024/01/24 07:11:44;;;;;;;12.10;6.00;;;;;;;1.49;85.16;100132.79;213997;1268;61287;-70
2024/01/24 07:16:37;;;;;;;14.10;6.60;;;;;;;1.37;85.80;100098.42;213943;1268;59985;-68
2024/01/24 07:21:30;;;;;;;12.10;6.40;;;;;;;1.26;86.08;100068.75;213976;1272;61954;-68
2024/01/24 07:26:23;;;;;;;13.70;7.10;;;;;;;1.18;85.98;100035.59;213910;1268;61271;-68
2024/01/24 07:31:17;;;;;;;13.40;6.20;;;;;;;1.13;86.60;100008.27;213927;1268;61368;-68
2024/01/24 07:36:10;;;;;;;20.90;6.20;;;;;;;1.10;86.77;99987.66;213921;1272;61288;-69
2024/01/24 07:41:02;;;;;;;12.20;6.00;;;;;;;1.08;87.24;99972.75;214049;1268;61243;-68
2024/01/24 07:45:55;;;;;;;17.50;7.10;;;;;;;1.11;87.63;99953.90;213956;1268;61273;-67
2024/01/24 07:50:49;;;;;;;15.60;7.10;;;;;;;1.15;87.52;99933.23;213978;1268;61466;-68
2024/01/24 07:55:43;;;;;;;15.70;6.30;;;;;;;1.18;87.82;99920.91;214058;1268;72686;-68
2024/01/24 08:00:50;;;;;;;14.90;6.10;;;;;;;1.22;88.01;99907.23;213959;1268;61304;-67
2024/01/24 08:05:43;;;;;;;10.60;5.70;;;;;;;1.25;87.78;99895.94;214009;1272;66582;-68
2024/01/24 08:10:36;;;;;;;16.10;5.90;;;;;;;1.29;88.21;99882.26;213900;1268;61268;-69
2024/01/24 08:15:29;;;;;;;13.40;5.80;;;;;;;1.34;88.45;99864.02;213875;1271;61296;-69
2024/01/24 08:20:23;;;;;;;10.80;5.30;;;;;;;1.40;88.59;99842.55;213782;1271;61398;-68
2024/01/24 08:25:16;;;;;;;13.70;6.60;;;;;;;1.47;89.17;99818.42;213839;1268;61908;-69
2024/01/24 08:30:09;;;;;;;13.50;5.90;;;;;;;1.53;89.37;99813.36;213654;1268;67869;-70
2024/01/24 08:35:02;;;;;;;10.60;6.50;;;;;;;1.62;89.69;99811.14;213624;1268;62016;-71
2024/01/24 08:39:55;;;;;;;11.30;4.90;;;;;;;1.69;89.82;99797.58;213634;1270;73122;-71
2024/01/24 08:44:48;;;;;;;11.10;5.50;;;;;;;1.77;90.36;99777.69;213632;1268;61231;-72
2024/01/24 08:49:43;;;;;;;9.30;5.90;;;;;;;1.86;90.14;99754.96;213511;1271;61261;-71
2024/01/24 08:54:38;;;;;;;11.30;6.50;;;;;;;1.93;90.04;99749.59;213445;1268;66075;-69
2024/01/24 08:59:31;;;;;;;8.40;4.70;;;;;;;1.98;90.53;99733.19;213544;1269;61298;-69
2024/01/24 09:04:25;;;;;;;8.80;5.10;;;;;;;2.02;90.73;99738.44;213617;1272;61390;-70
2024/01/24 09:09:19;;;;;;;8.80;4.90;;;;;;;2.05;90.92;99725.07;213823;1268;72825;-69
2024/01/24 09:14:12;;;;;;;10.40;5.00;;;;;;;2.08;90.96;99719.16;213716;1268;64090;-70
2024/01/24 09:19:05;;;;;;;6.60;4.70;;;;;;;2.09;91.07;99716.29;213750;1272;64958;-71
2024/01/24 09:23:58;;;;;;;8.60;5.50;;;;;;;2.12;91.16;99708.55;214055;1272;61284;-70
2024/01/24 09:28:51;;;;;;;6.80;5.20;;;;;;;2.15;91.10;99706.95;214013;1268;61352;-70
2024/01/24 09:33:44;;;;;;;8.00;5.00;;;;;;;2.16;91.17;99697.91;213927;1268;61296;-70
2024/01/24 09:38:37;;;;;;;7.60;5.00;;;;;;;2.20;91.43;99685.39;213947;1270;61983;-70
2024/01/24 09:43:31;;;;;;;5.90;5.30;;;;;;;2.18;91.24;99676.27;213914;1268;61441;-71
2024/01/24 09:48:24;;;;;;;6.40;5.30;;;;;;;2.20;91.87;99661.96;213879;1268;61322;-70
2024/01/24 09:53:20;;;;;;;8.00;6.00;;;;;;;2.23;91.63;99641.36;213961;1268;74677;-70
2024/01/24 09:58:13;;;;;;;9.70;5.90;;;;;;;2.24;91.50;99633.20;214010;1272;71500;-70
2024/01/24 10:03:12;;;;;;;8.60;5.90;;;;;;;2.24;91.66;99607.23;214002;1271;61292;-70
2024/01/24 10:08:05;;;;;;;10.50;5.90;;;;;;;2.27;92.00;99610.58;214074;1272;65974;-70
2024/01/24 10:13:01;;;;;;;9.00;5.90;;;;;;;2.32;92.00;99601.64;214003;1268;61361;-70
2024/01/24 10:17:56;;;;;;;9.80;6.70;;;;;;;2.39;92.26;99584.08;213928;1270;74876;-70
2024/01/24 10:22:50;;;;;;;7.70;5.10;;;;;;;2.45;92.09;99587.87;213731;1268;72559;-70
2024/01/24 10:27:42;;;;;;;8.50;4.90;;;;;;;2.49;92.34;99583.05;213813;1270;61418;-70
2024/01/24 10:32:37;;;;;;;6.70;4.90;;;;;;;2.58;92.55;99567.24;213818;1268;65528;-70
2024/01/24 10:37:29;;;;;;;4.50;3.40;;;;;;;2.66;92.66;99561.69;213943;1270;61235;-71
2024/01/24 10:42:29;;;;;;;4.90;3.10;;;;;;;2.75;93.11;99553.20;213972;1271;73445;-71
2024/01/24 10:47:22;;;;;;;3.50;2.70;;;;;;;2.86;93.08;99540.52;213940;1269;72970;-71
2024/01/24 10:52:16;;;;;;;4.70;2.80;;;;;;;2.95;93.21;99529.65;213916;1268;61265;-70
2024/01/24 10:57:14;;;;;;;2.90;2.60;;;;;;;3.00;92.96;99514.55;213966;1271;65901;-70
2024/01/24 11:02:10;;;;;;;5.70;3.10;;;;;;;3.05;93.20;99505.95;213909;1270;61941;-70
2024/01/24 11:07:07;;;;;;;4.90;3.70;;;;;;;3.16;93.30;99505.91;214060;1270;73333;-71
2024/01/24 11:12:01;;;;;;;4.00;3.70;;;;;;;3.23;93.25;99501.65;213977;1270;71445;-71
2024/01/24 11:16:53;;;;;;;3.80;3.00;;;;;;;3.31;93.51;99493.14;214040;1272;61302;-71
2024/01/24 11:21:50;;;;;;;4.80;3.90;;;;;;;3.37;93.26;99481.83;214019;1270;61402;-71
2024/01/24 11:26:50;;;;;;;4.40;2.90;;;;;;;3.39;93.18;99490.61;213889;1268;61328;-71
2024/01/24 11:31:44;;;;;;;10.00;3.60;;;;;;;3.45;93.81;99473.27;213892;1268;73242;-71
2024/01/24 11:36:52;;;;;;;4.80;3.70;;;;;;;3.50;93.71;99473.41;214034;1272;71643;-71
2024/01/24 11:41:45;;;;;;;5.50;3.80;;;;;;;3.52;93.85;99468.50;214003;1272;61268;-71
2024/01/24 11:46:38;;;;;;;4.20;3.80;;;;;;;3.57;94.10;99461.59;214021;1271;61297;-71
2024/01/24 11:51:31;;;;;;;19.60;6.00;;;;;;;3.59;94.39;99453.08;213965;1272;61275;-71
2024/01/24 11:56:25;;;;;;;5.40;3.70;;;;;;;3.58;93.82;99444.30;214105;1272;75729;-72
2024/01/24 12:01:18;;;;;;;14.90;4.60;;;;;;;3.59;94.07;99451.20;214155;1270;61370;-71
2024/01/24 12:06:11;;;;;;;5.70;4.70;;;;;;;3.71;94.93;99446.00;214030;1270;61399;-72
2024/01/24 12:11:08;;;;;;;5.30;4.80;;;;;;;3.88;95.48;99444.68;214108;1270;61299;-71
2024/01/24 12:16:01;;;;;;;6.60;4.90;;;;;;;4.01;95.30;99443.80;214022;1271;61604;-72
2024/01/24 12:20:56;;;;;;;7.70;5.70;;;;;;;4.13;95.37;99417.98;214127;1272;73371;-72
2024/01/24 12:25:54;;;;;;;6.10;4.60;;;;;;;4.36;94.96;99416.95;214095;1270;71515;-71
2024/01/24 12:30:48;;;;;;;6.90;4.90;;;;;;;4.66;95.28;99412.23;214165;1272;61934;-72
2024/01/24 12:35:48;;;;;;;8.60;5.40;;;;;;;5.00;94.84;99409.45;214026;1273;65975;-73
2024/01/24 12:40:50;;;;;;;6.30;5.00;;;;;;;5.20;94.33;99400.89;213934;1268;61314;-71
2024/01/24 12:45:45;;;;;;;9.60;5.90;;;;;;;5.59;94.21;99391.55;214101;1270;74620;-72
2024/01/24 12:50:38;;;;;;;6.40;5.30;;;;;;;5.86;93.71;99394.73;213947;1272;61355;-72
2024/01/24 12:55:32;;;;;;;6.40;5.60;;;;;;;5.87;93.52;99392.85;214070;1270;61280;-72
2024/01/24 13:00:24;;;;;;;6.20;4.70;;;;;;;6.09;93.02;99391.30;214035;1270;61354;-71
2024/01/24 13:05:18;;;;;;;7.40;5.70;;;;;;;6.04;92.84;99390.87;214108;1270;61383;-72
2024/01/24 13:10:20;;;;;;;6.40;4.70;;;;;;;5.86;93.16;99390.08;213978;1270;73733;-71
2024/01/24 13:15:13;;;;;;;4.90;4.40;;;;;;;6.09;93.78;99393.19;213985;1272;71400;-72
2024/01/24 13:20:09;;;;;;;9.90;4.50;;;;;;;6.27;93.40;99386.38;213940;1270;61296;-71
2024/01/24 13:25:02;;;;;;;9.00;4.90;;;;;;;6.30;93.46;99379.88;214068;1272;67114;-71
2024/01/24 13:29:55;;;;;;;9.70;4.70;;;;;;;6.33;93.36;99387.33;214050;1272;61283;-71
2024/01/24 13:34:48;;;;;;;6.10;4.00;;;;;;;6.30;93.36;99383.64;214048;1270;125642;-71
2024/01/24 13:39:43;;;;;;;5.00;3.60;;;;;;;6.29;93.55;99395.87;213832;1270;71218;-69
2024/01/24 13:44:35;;;;;;;7.70;4.80;;;;;;;6.37;93.49;99396.30;213795;1269;61299;-69
2024/01/24 13:49:29;;;;;;;8.20;3.90;;;;;;;6.41;93.31;99402.23;213986;1270;61413;-69
2024/01/24 13:54:21;;;;;;;7.40;3.90;;;;;;;6.30;93.69;99398.28;214082;1272;61272;-69
2024/01/24 13:59:15;;;;;;;6.10;4.40;;;;;;;6.23;93.78;99415.41;214022;1270;73378;-68
2024/01/24 14:04:08;;;;;;;6.50;3.30;;;;;;;6.14;94.33;99422.51;214000;1272;61395;-70
2024/01/24 14:09:01;;;;;;;7.20;3.70;;;;;;;6.08;94.50;99429.14;214082;1269;61405;-70
2024/01/24 14:13:54;;;;;;;6.10;3.50;;;;;;;6.09;95.10;99429.83;213974;1272;61287;-70
2024/01/24 14:18:47;;;;;;;5.00;3.60;;;;;;;6.05;94.54;99424.09;213840;1270;61317;-70
2024/01/24 14:23:42;;;;;;;7.60;3.20;;;;;;;6.00;94.39;99414.04;213781;1271;61812;-70
2024/01/24 14:28:35;;;;;;;8.00;4.30;;;;;;;5.92;94.29;99412.02;213853;1270;72329;-70
2024/01/24 14:33:28;;;;;;;3.90;2.40;;;;;;;5.84;94.43;99412.42;213825;1268;61312;-70
2024/01/24 14:38:27;;;;;;;8.50;2.70;;;;;;;5.79;94.64;99402.52;213711;1270;65921;-71
2024/01/24 14:43:19;;;;;;;5.50;2.60;;;;;;;5.73;94.45;99395.04;213742;1270;61390;-72
2024/01/24 14:48:12;;;;;;;7.60;3.60;;;;;;;5.67;94.36;99391.67;213797;1270;61384;-71
2024/01/24 14:53:05;;;;;;;6.40;2.50;;;;;;;5.62;94.30;99400.20;213637;1268;61390;-71
2024/01/24 14:57:59;;;;;;;4.80;2.60;;;;;;;5.55;94.18;99417.97;213766;1270;61246;-71
2024/01/24 15:02:52;;;;;;;7.10;3.30;;;;;;;5.43;94.29;99405.73;213804;1272;66997;-71
2024/01/24 15:07:45;;;;;;;6.10;3.70;;;;;;;5.25;94.04;99412.30;213830;1269;62059;-70
2024/01/24 15:12:39;;;;;;;7.10;3.90;;;;;;;5.04;93.87;99429.45;213868;1268;61314;-70
2024/01/24 15:17:32;;;;;;;7.20;4.00;;;;;;;4.84;94.05;99434.41;213696;1270;72608;-71
2024/01/24 15:22:25;;;;;;;5.70;5.10;;;;;;;4.85;95.22;99444.19;213749;1269;61287;-70
2024/01/24 15:27:20;;;;;;;11.70;5.70;;;;;;;4.91;95.62;99455.83;213845;1268;65810;-71
2024/01/24 15:32:13;;;;;;;8.10;5.70;;;;;;;5.01;95.89;99461.32;213843;1268;61282;-71
2024/01/24 15:37:06;;;;;;;8.70;7.00;;;;;;;5.12;96.39;99461.20;213771;1268;65713;-71
2024/01/24 15:47:15;;;;;;;15.00;7.30;;;;;;;5.27;96.44;99465.43;213744;1268;61397;-71
2024/01/24 15:52:08;;;;;;;9.00;5.50;;;;;;;5.35;96.74;99462.99;214022;1268;67095;-71
2024/01/24 15:57:01;;;;;;;10.80;5.20;;;;;;;5.45;96.51;99462.30;213983;1270;61325;-73
2024/01/24 16:01:54;;;;;;;11.50;3.70;;;;;;;5.47;96.01;99463.88;213946;1272;61393;-73
2024/01/24 16:06:52;;;;;;;7.60;3.50;;;;;;;5.50;95.92;99462.92;213645;1268;72428;-72
2024/01/24 16:11:47;;;;;;;9.50;3.60;;;;;;;5.56;95.69;99461.98;213941;1268;61270;-70
2024/01/24 16:16:44;;;;;;;10.10;3.00;;;;;;;5.60;95.29;99471.33;214085;1268;67030;-73
2024/01/24 16:21:44;;;;;;;13.00;4.30;;;;;;;5.63;94.85;99475.84;214093;1270;61309;-70
2024/01/24 16:26:37;;;;;;;8.50;3.40;;;;;;;5.66;94.91;99475.57;214105;1270;74970;-71
2024/01/24 16:31:30;;;;;;;8.10;3.10;;;;;;;5.70;94.64;99474.09;213979;1269;61383;-71
2024/01/24 16:36:22;;;;;;;8.70;2.90;;;;;;;5.75;94.70;99477.77;214065;1268;61299;-71
2024/01/24 16:41:15;;;;;;;9.70;3.20;;;;;;;5.81;94.56;99470.46;214117;1270;61322;-71
2024/01/24 16:46:16;;;;;;;11.90;4.10;;;;;;;5.84;94.30;99474.83;213938;1268;61873;-71
2024/01/24 16:51:10;;;;;;;13.20;4.60;;;;;;;5.84;94.06;99471.05;213914;1268;74518;-72
2024/01/24 16:56:22;;;;;;;13.60;4.00;;;;;;;5.90;94.19;99460.98;214035;1268;70946;-74
2024/01/24 17:01:15;;;;;;;12.20;3.30;;;;;;;6.01;94.16;99468.08;213852;1271;61290;-72
2024/01/24 17:06:08;;;;;;;15.90;3.90;;;;;;;6.03;93.82;99466.73;214036;1272;61302;-72
2024/01/24 17:11:00;;;;;;;9.40;4.00;;;;;;;6.04;93.72;99469.66;214029;1268;61994;-72
2024/01/24 17:16:05;;;;;;;10.20;4.00;;;;;;;6.05;93.49;99465.20;213981;1268;61290;-75
2024/01/24 17:21:23;;;;;;;11.80;3.40;;;;;;;6.08;93.26;99457.52;213977;1270;71426;-74
2024/01/24 17:26:16;;;;;;;10.50;3.30;;;;;;;6.08;92.92;99451.15;213916;1268;61661;-71
2024/01/24 17:31:09;;;;;;;12.70;3.90;;;;;;;6.13;92.97;99451.73;213614;1272;61391;-72
2024/01/24 17:36:02;;;;;;;12.50;3.40;;;;;;;6.13;92.84;99445.36;213726;1268;61371;-72
2024/01/24 17:40:57;;;;;;;10.10;3.50;;;;;;;6.11;93.10;99442.59;213627;1268;61299;-71
2024/01/24 17:45:49;;;;;;;19.30;5.50;;;;;;;6.08;93.08;99436.02;213287;1268;72621;-71
2024/01/24 17:50:42;;;;;;;12.70;4.40;;;;;;;6.05;93.07;99433.55;213399;1268;61294;-70
2024/01/24 17:55:35;;;;;;;11.50;4.30;;;;;;;6.04;93.17;99434.75;213178;1268;61364;-71
2024/01/24 18:00:28;;;;;;;11.00;3.80;;;;;;;6.07;93.08;99430.50;213317;1268;61346;-73
2024/01/24 18:05:24;;;;;;;9.50;2.80;;;;;;;6.08;92.71;99434.79;213302;1270;73453;-72
2024/01/24 18:10:17;;;;;;;12.80;3.60;;;;;;;6.15;92.90;99436.96;213403;1268;72426;-71
2024/01/24 18:15:10;;;;;;;9.60;3.90;;;;;;;6.19;92.75;99433.41;213344;1268;66208;-73
2024/01/24 18:20:03;;;;;;;13.90;4.30;;;;;;;6.22;92.46;99430.02;213431;1272;61239;-72
2024/01/24 18:25:07;;;;;;;15.20;3.90;;;;;;;6.25;92.16;99423.34;213503;1268;61374;-75
2024/01/24 18:30:03;;;;;;;17.50;4.90;;;;;;;6.29;91.64;99420.64;213375;1268;73903;-71
2024/01/24 18:34:56;;;;;;;13.90;4.80;;;;;;;6.33;91.53;99416.58;213449;1268;72331;-72
2024/01/24 18:39:49;;;;;;;12.10;4.00;;;;;;;6.37;91.35;99434.20;213379;1268;61405;-72
2024/01/24 18:44:42;;;;;;;9.40;3.60;;;;;;;6.44;91.31;99428.41;213697;1268;66231;-72
2024/01/24 18:49:35;;;;;;;15.00;5.10;;;;;;;6.38;90.96;99440.56;213863;1268;61373;-72
2024/01/24 18:54:28;;;;;;;14.10;4.20;;;;;;;6.35;91.16;99450.16;213871;1268;73855;-71
2024/01/24 18:59:21;;;;;;;7.90;3.80;;;;;;;6.32;91.60;99447.70;213818;1270;71450;-71
2024/01/24 19:04:15;;;;;;;19.10;4.10;;;;;;;6.30;91.65;99443.02;213772;1269;61280;-72
2024/01/24 19:09:09;;;;;;;14.10;3.60;;;;;;;6.26;91.73;99440.91;213787;1268;65909;-71
2024/01/24 19:14:03;;;;;;;10.50;3.50;;;;;;;6.20;91.99;99430.52;213824;1268;61296;-72
2024/01/24 19:18:56;;;;;;;9.40;3.60;;;;;;;6.15;92.28;99432.50;214077;1268;73668;-71
2024/01/24 19:23:49;;;;;;;18.30;4.20;;;;;;;6.10;92.17;99429.33;213792;1268;71419;-72
2024/01/24 19:28:45;;;;;;;9.00;3.20;;;;;;;6.06;92.39;99429.11;213911;1268;61389;-72
2024/01/24 19:33:39;;;;;;;7.40;3.70;;;;;;;6.07;92.35;99420.00;213887;1268;65674;-71
2024/01/24 19:38:33;;;;;;;12.60;4.00;;;;;;;6.10;92.40;99417.80;213916;1268;61301;-71
2024/01/24 19:43:26;;;;;;;15.50;4.90;;;;;;;6.14;92.06;99418.89;213739;1270;74815;-71
2024/01/24 19:48:18;;;;;;;11.20;4.00;;;;;;;6.15;91.87;99417.52;213532;1268;63048;-71
2024/01/24 19:53:12;;;;;;;11.20;4.20;;;;;;;6.16;91.71;99419.27;213615;1270;61396;-71
2024/01/24 19:58:14;;;;;;;11.90;4.10;;;;;;;6.16;91.53;99424.77;213866;1268;66045;-71
2024/01/24 20:03:07;;;;;;;9.70;3.20;;;;;;;6.17;91.44;99421.85;213435;1268;61444;-71
2024/01/24 20:07:59;;;;;;;12.30;4.30;;;;;;;6.19;91.42;99425.48;213536;1268;61306;-71
2024/01/24 20:12:52;;;;;;;7.30;3.20;;;;;;;6.23;91.31;99433.30;213560;1268;61421;-71
2024/01/24 20:17:47;;;;;;;16.20;4.90;;;;;;;6.26;91.25;99425.08;213558;1268;61264;-71
2024/01/24 20:22:40;;;;;;;8.60;3.70;;;;;;;6.27;91.08;99430.93;213428;1268;65613;-71
2024/01/24 20:27:33;;;;;;;9.50;3.40;;;;;;;6.27;91.31;99431.98;213856;1268;62050;-71
2024/01/24 20:32:26;;;;;;;11.30;3.40;;;;;;;6.24;91.56;99431.58;213826;1268;61321;-71
2024/01/24 20:37:19;;;;;;;15.60;4.20;;;;;;;6.20;91.59;99436.70;213786;1268;61351;-71
2024/01/24 20:42:12;;;;;;;10.50;4.70;;;;;;;6.18;91.60;99426.34;213839;1268;62447;-71
2024/01/24 20:47:06;;;;;;;14.10;3.80;;;;;;;6.17;91.54;99422.90;213722;1268;67215;-71
2024/01/24 20:52:00;;;;;;;9.70;4.10;;;;;;;6.20;91.22;99426.36;213656;1268;64394;-72
2024/01/24 20:56:52;;;;;;;7.40;3.40;;;;;;;6.22;91.01;99421.75;213861;1268;61268;-72
2024/01/24 21:01:45;;;;;;;12.20;4.00;;;;;;;6.27;91.01;99425.09;213809;1268;61295;-72
2024/01/24 21:06:38;;;;;;;12.20;4.60;;;;;;;6.30;90.86;99432.52;213913;1268;61346;-71
2024/01/24 21:11:31;;;;;;;13.90;3.40;;;;;;;6.30;90.74;99433.23;213571;1268;61788;-72
2024/01/24 21:16:24;;;;;;;7.80;3.50;;;;;;;6.29;90.77;99435.27;213518;1270;61328;-71
2024/01/24 21:21:18;;;;;;;6.20;3.20;;;;;;;6.23;91.32;99428.66;213550;1268;61966;-71
2024/01/24 21:26:11;;;;;;;9.20;4.50;;;;;;;6.18;91.43;99432.02;213675;1268;71136;-71
2024/01/24 21:31:06;;;;;;;10.60;4.40;;;;;;;6.11;91.66;99428.83;213568;1268;61477;-71
2024/01/24 21:36:00;;;;;;;9.90;3.70;;;;;;;6.05;92.09;99433.91;213611;1270;66284;-72
2024/01/24 21:40:52;;;;;;;12.40;3.80;;;;;;;6.01;92.03;99438.14;213629;1268;61296;-71
2024/01/24 21:45:45;;;;;;;10.30;4.20;;;;;;;5.96;92.17;99425.70;213592;1268;61409;-72
2024/01/24 21:50:38;;;;;;;8.50;3.70;;;;;;;5.93;92.40;99427.50;213893;1268;61369;-73
2024/01/24 21:55:33;;;;;;;7.90;3.30;;;;;;;5.92;92.43;99423.89;213819;1268;61460;-72
2024/01/24 22:00:25;;;;;;;10.20;3.40;;;;;;;5.91;92.27;99416.29;213847;1268;61283;-72
2024/01/24 22:05:19;;;;;;;9.50;3.50;;;;;;;5.91;92.18;99416.13;213989;1268;61797;-72
2024/01/24 22:10:12;;;;;;;9.30;3.30;;;;;;;5.91;91.80;99420.94;214010;1268;74139;-72
2024/01/24 22:15:07;;;;;;;13.10;3.50;;;;;;;5.95;91.67;99426.00;214013;1268;61352;-72
2024/01/24 22:20:00;;;;;;;5.10;2.80;;;;;;;5.98;91.38;99425.37;213928;1267;61316;-72
2024/01/24 22:24:53;;;;;;;8.50;3.80;;;;;;;6.00;91.21;99413.18;213825;1268;61357;-72
2024/01/24 22:29:46;;;;;;;8.00;3.30;;;;;;;6.03;90.84;99409.77;213843;1268;61378;-72
2024/01/24 22:34:51;;;;;;;9.30;3.10;;;;;;;6.05;90.53;99420.48;213507;1270;75969;-72
2024/01/24 22:39:44;;;;;;;6.10;2.50;;;;;;;6.08;90.12;99418.30;213743;1270;61283;-70
2024/01/24 22:44:40;;;;;;;4.70;2.40;;;;;;;6.13;89.84;99423.17;213728;1268;61361;-72
2024/01/24 22:49:33;;;;;;;10.60;2.90;;;;;;;6.17;89.50;99423.05;213881;1268;67945;-72
2024/01/24 22:54:26;;;;;;;6.80;2.70;;;;;;;6.17;89.14;99430.98;213880;1268;61312;-73